Time;durP1;ratioP1;P1;durP2;ratioP2;P2;SDS_P1;SDS_P2;PMS_P1;PMS_P2;Temp;Humidity;BMP_temperature;BMP_pressure;BME280_temperature;BME280_humidity;BME280_pressure;Samples;Min_cycle;Max_cycle;Signal;HPM_P1;HPM_P2
2022/07/14 00:00:56;;;;;;;8.63;1.63;;;;;;;17.05;75.54;102088.13;4993076;28;20034;-72
2022/07/14 00:03:22;;;;;;;8.57;1.77;;;;;;;16.99;76.14;102086.31;4992977;28;20022;-73
2022/07/14 00:05:47;;;;;;;11.43;1.70;;;;;;;17.05;75.75;102080.31;4992128;28;20371;-73
2022/07/14 00:08:12;;;;;;;9.65;2.00;;;;;;;16.94;76.17;102074.84;4995274;28;20022;-73
2022/07/14 00:10:38;;;;;;;7.85;1.85;;;;;;;16.85;76.46;102077.63;4996485;28;20500;-72
2022/07/14 00:13:03;;;;;;;9.30;2.15;;;;;;;16.92;76.21;102083.69;4996481;28;20077;-72
2022/07/14 00:15:29;;;;;;;7.82;1.63;;;;;;;16.92;76.42;102082.91;4995078;28;20027;-73
2022/07/14 00:17:56;;;;;;;10.63;1.80;;;;;;;16.90;76.76;102071.84;4996362;28;20477;-72
2022/07/14 00:20:21;;;;;;;12.05;1.98;;;;;;;16.89;76.63;102075.47;4996209;28;20097;-73
2022/07/14 00:22:48;;;;;;;10.07;1.90;;;;;;;16.77;76.99;102069.97;4995023;28;20422;-73
2022/07/14 00:25:14;;;;;;;9.98;1.70;;;;;;;16.72;77.30;102079.41;5011321;28;20035;-73
2022/07/14 00:27:39;;;;;;;11.63;1.88;;;;;;;16.60;77.78;102087.78;4996202;28;20085;-71
2022/07/14 00:30:05;;;;;;;11.55;1.77;;;;;;;16.55;78.60;102086.75;4996130;28;20038;-72
2022/07/14 00:32:32;;;;;;;13.95;2.00;;;;;;;16.55;78.73;102084.94;4996154;28;20097;-72
2022/07/14 00:34:58;;;;;;;8.57;1.65;;;;;;;16.63;78.34;102084.78;4994975;28;20036;-73
2022/07/14 00:37:23;;;;;;;11.90;2.00;;;;;;;16.66;78.05;102091.44;4996064;28;20097;-73
2022/07/14 00:39:54;;;;;;;5.35;1.50;;;;;;;16.63;77.76;102091.78;4995992;28;20037;-73
2022/07/14 00:42:36;;;;;;;6.93;1.48;;;;;;;16.41;79.23;102096.31;4994494;28;20518;-73
2022/07/14 00:45:05;;;;;;;10.93;1.85;;;;;;;16.33;79.43;102099.88;4994318;28;20050;-71
2022/07/14 00:47:30;;;;;;;9.43;1.80;;;;;;;16.30;79.69;102082.03;4995733;28;20034;-72
2022/07/14 00:49:56;;;;;;;6.43;1.70;;;;;;;16.20;80.26;102092.81;4995774;28;20470;-72
2022/07/14 00:52:23;;;;;;;11.30;1.80;;;;;;;16.22;80.17;102084.78;4994421;28;20097;-73
2022/07/14 00:54:48;;;;;;;6.20;1.75;;;;;;;16.12;80.21;102082.53;4995540;28;20029;-73
2022/07/14 00:57:14;;;;;;;6.03;1.80;;;;;;;16.06;80.62;102083.31;4995659;28;20022;-73
2022/07/14 00:59:39;;;;;;;15.07;2.15;;;;;;;16.07;80.42;102089.31;4995684;28;20030;-73
2022/07/14 01:02:05;;;;;;;7.82;1.90;;;;;;;15.97;80.82;102092.28;4994380;28;20401;-73
2022/07/14 01:04:30;;;;;;;7.70;1.80;;;;;;;15.86;81.11;102080.56;4995521;28;20058;-73
2022/07/14 01:06:56;;;;;;;11.20;1.80;;;;;;;15.94;81.28;102092.63;4995420;28;20049;-73
2022/07/14 01:09:21;;;;;;;6.25;1.85;;;;;;;15.94;81.14;102087.41;4994162;28;20062;-73
2022/07/14 01:11:46;;;;;;;8.68;1.73;;;;;;;15.82;82.12;102088.94;4995370;28;20022;-73
2022/07/14 01:14:11;;;;;;;8.90;2.05;;;;;;;15.86;81.99;102090.19;4994131;28;20026;-73
2022/07/14 01:16:37;;;;;;;6.75;1.90;;;;;;;15.86;82.07;102093.59;4995440;28;20025;-73
2022/07/14 01:19:02;;;;;;;5.05;1.70;;;;;;;15.86;82.09;102090.19;5009618;28;20038;-72
2022/07/14 01:21:27;;;;;;;8.45;1.60;;;;;;;15.79;81.71;102083.13;4995214;28;20038;-72
2022/07/14 01:23:53;;;;;;;11.15;2.65;;;;;;;15.83;81.54;102086.16;4995224;28;20529;-72
2022/07/14 01:26:18;;;;;;;9.63;1.80;;;;;;;15.78;82.02;102088.53;4995050;28;20393;-72
2022/07/14 01:28:43;;;;;;;7.10;1.60;;;;;;;15.60;82.63;102080.34;4995044;28;20033;-73
2022/07/14 01:31:09;;;;;;;8.38;2.05;;;;;;;15.73;82.51;102089.06;4995044;28;20508;-73
2022/07/14 01:33:34;;;;;;;9.02;2.08;;;;;;;15.70;82.00;102078.22;4993718;28;20183;-72
2022/07/14 01:36:00;;;;;;;7.28;1.80;;;;;;;15.69;82.06;102085.25;4994950;28;20030;-72
2022/07/14 01:38:25;;;;;;;8.00;1.90;;;;;;;15.66;82.12;102082.19;4993612;28;20029;-72
2022/07/14 01:40:50;;;;;;;5.50;1.67;;;;;;;15.51;82.43;102080.47;4994833;28;20026;-72
2022/07/14 01:43:16;;;;;;;6.40;1.50;;;;;;;15.59;82.05;102079.50;4993733;28;20116;-72
2022/07/14 01:45:41;;;;;;;9.38;1.83;;;;;;;15.45;83.14;102083.00;5009693;28;20153;-73
2022/07/14 01:48:06;;;;;;;7.57;1.80;;;;;;;15.52;82.31;102073.47;4994799;28;20045;-73
2022/07/14 01:50:31;;;;;;;4.78;1.70;;;;;;;15.50;82.22;102078.84;4994669;28;20018;-73
2022/07/14 01:52:57;;;;;;;6.90;1.63;;;;;;;15.32;82.81;102071.47;4994598;28;20117;-73
2022/07/14 01:55:22;;;;;;;8.38;1.80;;;;;;;15.35;82.88;102068.50;4994571;28;20486;-73
2022/07/14 01:57:47;;;;;;;8.25;1.77;;;;;;;15.32;83.03;102068.88;4994593;28;20030;-73
2022/07/14 02:00:13;;;;;;;10.02;1.98;;;;;;;15.31;83.10;102067.28;4993109;28;20022;-73
2022/07/14 02:02:38;;;;;;;9.18;2.08;;;;;;;15.30;83.23;102080.47;4994496;28;20033;-73
2022/07/14 02:05:07;;;;;;;9.40;1.98;;;;;;;15.23;83.13;102072.59;4991918;28;20117;-73
2022/07/14 02:07:32;;;;;;;9.90;1.80;;;;;;;15.28;83.26;102074.66;4994137;28;20029;-73
2022/07/14 02:12:41;;;;;;;5.55;1.65;;;;;;;15.23;82.88;102090.84;4994775;28;20409;-73
2022/07/14 02:15:07;;;;;;;5.28;1.52;;;;;;;15.19;83.53;102079.19;4994225;28;20023;-73
2022/07/14 02:17:32;;;;;;;6.63;1.90;;;;;;;15.26;82.90;102064.41;4994208;28;20029;-73
2022/07/14 02:19:58;;;;;;;7.88;2.13;;;;;;;15.33;83.52;102069.69;4994268;28;20029;-73
2022/07/14 02:22:23;;;;;;;6.32;1.95;;;;;;;15.51;82.72;102074.47;4994040;28;20180;-72
2022/07/14 02:24:49;;;;;;;9.07;1.85;;;;;;;15.45;82.22;102085.59;4994053;28;20027;-72
2022/07/14 02:27:14;;;;;;;5.22;1.75;;;;;;;15.37;82.41;102080.56;4994027;28;20093;-72
2022/07/14 02:29:39;;;;;;;9.38;1.90;;;;;;;15.24;83.03;102083.81;4993934;28;20022;-72
2022/07/14 02:32:06;;;;;;;7.55;1.83;;;;;;;15.29;83.70;102066.66;4993947;28;20077;-72
2022/07/14 02:34:32;;;;;;;9.48;1.80;;;;;;;15.28;83.31;102072.06;4993848;28;20030;-72
2022/07/14 02:36:58;;;;;;;6.28;1.70;;;;;;;15.14;83.73;102078.94;4994023;28;20069;-72
2022/07/14 02:39:24;;;;;;;7.93;2.00;;;;;;;15.01;84.30;102081.38;4992847;28;20022;-72
2022/07/14 02:41:49;;;;;;;5.53;1.95;;;;;;;14.94;84.62;102080.53;4993872;28;20085;-72
2022/07/14 02:44:14;;;;;;;7.55;1.88;;;;;;;14.97;84.00;102086.16;4992305;28;20057;-72
2022/07/14 02:46:40;;;;;;;7.43;2.08;;;;;;;14.93;83.90;102079.69;4992406;28;20027;-72
2022/07/14 02:49:06;;;;;;;5.00;1.77;;;;;;;14.88;83.94;102080.25;4992457;28;20489;-72
2022/07/14 02:51:31;;;;;;;7.03;2.20;;;;;;;14.83;83.79;102069.59;4993838;28;20429;-72
2022/07/14 02:53:56;;;;;;;5.30;1.67;;;;;;;14.79;83.98;102068.34;4993759;28;20081;-72
2022/07/14 02:56:22;;;;;;;5.55;1.58;;;;;;;14.80;84.04;102071.75;4993724;28;20034;-72
2022/07/14 02:58:47;;;;;;;5.07;1.90;;;;;;;14.71;83.91;102065.06;4993602;28;20018;-72
2022/07/14 03:01:12;;;;;;;6.47;1.80;;;;;;;14.71;83.61;102071.06;4992422;28;20389;-73
2022/07/14 03:03:38;;;;;;;5.13;1.75;;;;;;;14.59;83.78;102075.94;4993604;28;20029;-72
2022/07/14 03:06:12;;;;;;;6.35;1.80;;;;;;;14.52;84.44;102080.22;4992216;28;20033;-72
2022/07/14 03:08:38;;;;;;;6.63;1.80;;;;;;;14.42;84.83;102090.09;4993583;28;20034;-72
2022/07/14 03:11:04;;;;;;;7.22;1.90;;;;;;;14.42;84.54;102080.47;4993576;28;20084;-72
2022/07/14 03:13:30;;;;;;;6.90;1.90;;;;;;;14.44;84.13;102078.53;4993542;28;20030;-72
2022/07/14 03:15:55;;;;;;;6.45;1.80;;;;;;;14.40;83.97;102079.84;4993598;28;20570;-73
2022/07/14 03:18:20;;;;;;;7.05;1.95;;;;;;;14.33;83.87;102076.38;4993476;28;20041;-72
2022/07/14 03:20:46;;;;;;;4.00;1.73;;;;;;;14.17;84.57;102081.75;4993568;28;20026;-72
2022/07/14 03:23:11;;;;;;;6.28;1.52;;;;;;;14.21;85.06;102073.41;4992225;28;20034;-72
2022/07/14 03:25:36;;;;;;;9.63;1.90;;;;;;;14.12;84.63;102065.88;4993447;28;20034;-72
2022/07/14 03:28:02;;;;;;;4.22;1.80;;;;;;;14.08;85.42;102062.03;4993414;28;20466;-72
2022/07/14 03:30:27;;;;;;;6.18;1.98;;;;;;;14.08;85.09;102069.81;4992272;28;20034;-72
2022/07/14 03:32:52;;;;;;;4.50;1.80;;;;;;;14.09;85.63;102074.03;4993398;28;20054;-72
2022/07/14 03:35:18;;;;;;;6.95;2.00;;;;;;;14.13;85.11;102062.31;4993514;28;20351;-72
2022/07/14 03:37:43;;;;;;;5.93;1.90;;;;;;;14.30;84.52;102071.53;4992185;28;20117;-72
2022/07/14 03:40:09;;;;;;;8.07;2.00;;;;;;;14.29;83.85;102069.91;4992001;28;20062;-72
2022/07/14 03:42:34;;;;;;;4.30;1.83;;;;;;;14.11;83.55;102072.06;4995388;28;20026;-73
2022/07/14 03:45:00;;;;;;;7.85;1.85;;;;;;;13.96;83.55;102067.66;4995573;28;20457;-72
2022/07/14 03:47:25;;;;;;;4.38;1.80;;;;;;;13.99;84.61;102069.09;4996798;28;20037;-72
2022/07/14 03:49:50;;;;;;;6.35;1.90;;;;;;;14.04;84.85;102073.75;4996964;28;20030;-72
2022/07/14 03:52:16;;;;;;;9.18;1.98;;;;;;;14.02;84.28;102078.34;4995748;28;20458;-72
2022/07/14 03:54:45;;;;;;;10.52;1.83;;;;;;;13.96;83.89;102072.84;4996885;28;20030;-73
2022/07/14 03:57:12;;;;;;;7.10;2.22;;;;;;;13.88;84.52;102080.72;4995590;28;20030;-73
2022/07/14 03:59:40;;;;;;;7.25;1.70;;;;;;;13.89;84.62;102092.72;4996841;28;20034;-72
2022/07/14 04:02:10;;;;;;;9.23;1.98;;;;;;;13.98;83.77;102086.50;4995390;28;20025;-72
2022/07/14 04:04:37;;;;;;;6.22;2.10;;;;;;;13.95;84.29;102081.66;4995435;28;20054;-72
2022/07/14 04:07:02;;;;;;;3.75;1.58;;;;;;;13.88;84.50;102075.53;4995329;28;20026;-72
2022/07/14 04:09:28;;;;;;;7.80;2.00;;;;;;;13.95;84.89;102075.63;4996491;28;20482;-72
2022/07/14 04:11:53;;;;;;;5.03;1.98;;;;;;;14.21;84.50;102075.19;4995138;28;20034;-72
2022/07/14 04:14:18;;;;;;;5.05;1.80;;;;;;;14.36;83.56;102073.41;4996559;28;20101;-73
2022/07/14 04:16:44;;;;;;;5.70;1.80;;;;;;;14.29;83.67;102067.28;4995444;28;20026;-72
2022/07/14 04:19:09;;;;;;;3.92;1.88;;;;;;;14.33;82.50;102070.38;4994997;28;20042;-73
2022/07/14 04:21:36;;;;;;;8.95;2.13;;;;;;;14.37;83.01;102069.00;4995043;28;20398;-72
2022/07/14 04:24:02;;;;;;;7.07;2.50;;;;;;;14.36;82.87;102065.59;4995366;28;20026;-72
2022/07/14 04:26:27;;;;;;;5.47;1.95;;;;;;;14.32;83.71;102060.94;4996193;28;20482;-72
2022/07/14 04:28:53;;;;;;;5.15;1.77;;;;;;;14.27;83.71;102058.91;4996257;28;20030;-72
2022/07/14 04:31:18;;;;;;;3.88;1.85;;;;;;;14.39;84.30;102060.03;4994893;28;20030;-72
2022/07/14 04:33:44;;;;;;;4.20;1.80;;;;;;;14.52;83.82;102062.03;4996198;28;20027;-72
2022/07/14 04:36:09;;;;;;;4.85;1.85;;;;;;;14.43;83.52;102057.88;4994913;28;20033;-72
2022/07/14 04:38:34;;;;;;;6.40;1.90;;;;;;;14.43;83.72;102058.69;4994733;28;20026;-72
2022/07/14 04:41:00;;;;;;;5.20;1.95;;;;;;;14.58;83.76;102061.28;4995957;28;20029;-72
2022/07/14 04:43:26;;;;;;;9.35;2.00;;;;;;;14.66;83.55;102063.00;4996048;28;20026;-73
2022/07/14 04:45:52;;;;;;;13.80;2.67;;;;;;;14.63;83.70;102061.56;4995735;28;20117;-72
2022/07/14 04:48:17;;;;;;;6.35;2.25;;;;;;;14.68;83.79;102060.22;4994657;28;20029;-72
2022/07/14 04:53:27;;;;;;;4.47;1.77;;;;;;;14.86;82.98;102066.63;4995946;28;20164;-72
2022/07/14 04:55:53;;;;;;;7.75;2.00;;;;;;;14.93;82.89;102071.88;4995698;28;20101;-72
2022/07/14 04:58:18;;;;;;;8.70;1.90;;;;;;;14.99;82.82;102072.94;4994508;28;20468;-72
2022/07/14 05:00:44;;;;;;;6.15;2.10;;;;;;;15.03;82.51;102064.59;4994438;28;20028;-72
2022/07/14 05:03:09;;;;;;;5.97;1.73;;;;;;;15.19;82.52;102060.97;4994277;28;20390;-72
2022/07/14 05:05:34;;;;;;;6.88;1.90;;;;;;;15.28;82.51;102054.63;4995591;28;20116;-72
2022/07/14 05:08:00;;;;;;;7.10;1.90;;;;;;;15.43;81.52;102064.16;4995428;28;20030;-72
2022/07/14 05:10:25;;;;;;;9.07;2.20;;;;;;;15.35;82.12;102062.50;4995580;28;20101;-72
2022/07/14 05:12:50;;;;;;;11.60;1.90;;;;;;;15.28;82.03;102059.84;5011249;28;20437;-73
2022/07/14 05:15:16;;;;;;;8.48;2.00;;;;;;;15.30;82.68;102060.44;4994579;28;20019;-73
2022/07/14 05:17:43;;;;;;;7.30;2.00;;;;;;;15.44;82.13;102071.78;4995114;28;20085;-76
2022/07/14 05:20:09;;;;;;;7.22;2.00;;;;;;;15.53;82.56;102069.84;4995112;28;20037;-76
2022/07/14 05:22:36;;;;;;;8.77;2.30;;;;;;;15.68;81.43;102067.19;4996203;28;20027;-77
2022/07/14 05:25:05;;;;;;;7.90;1.90;;;;;;;15.80;81.27;102068.28;4994089;28;20018;-76
2022/07/14 05:27:30;;;;;;;11.93;2.20;;;;;;;15.89;80.65;102063.75;4994079;28;20023;-77
2022/07/14 05:29:56;;;;;;;7.25;2.20;;;;;;;15.97;79.45;102061.00;4995379;28;20096;-78
2022/07/14 05:32:21;;;;;;;10.60;2.17;;;;;;;15.99;78.99;102053.75;4995187;28;20030;-76
2022/07/14 05:34:47;;;;;;;11.60;2.38;;;;;;;16.15;78.87;102047.44;4993857;28;20022;-76
2022/07/14 05:37:12;;;;;;;10.35;2.22;;;;;;;16.23;78.95;102047.28;4994002;28;20430;-76
2022/07/14 05:39:38;;;;;;;13.10;2.25;;;;;;;16.31;78.92;102059.34;4994921;28;20116;-77
2022/07/14 05:42:04;;;;;;;14.63;2.40;;;;;;;16.38;77.57;102057.59;4995116;28;20398;-77
2022/07/14 05:44:29;;;;;;;13.93;2.35;;;;;;;16.61;78.05;102052.84;4993696;28;20489;-77
2022/07/14 05:46:55;;;;;;;14.88;2.08;;;;;;;16.76;77.43;102062.34;4993620;28;20102;-77
2022/07/14 05:49:20;;;;;;;12.02;2.28;;;;;;;16.70;76.94;102059.50;4994983;28;20026;-77
2022/07/14 05:51:45;;;;;;;12.38;2.38;;;;;;;17.27;75.41;102061.84;4993578;28;20397;-78
2022/07/14 05:54:10;;;;;;;13.05;2.45;;;;;;;23.63;53.29;102061.25;4993601;28;20030;-77
2022/07/14 05:56:36;;;;;;;13.57;2.70;;;;;;;26.66;44.51;102065.16;4993485;28;20022;-80
2022/07/14 05:59:01;;;;;;;11.35;2.20;;;;;;;28.41;40.60;102067.06;4995025;28;20034;-79
2022/07/14 06:01:27;;;;;;;10.23;2.20;;;;;;;28.77;38.94;102069.50;4994736;28;20023;-79
2022/07/14 06:03:56;;;;;;;10.95;2.28;;;;;;;30.09;36.52;102067.28;4994770;28;20038;-78
2022/07/14 06:06:22;;;;;;;9.60;1.95;;;;;;;30.94;35.21;102065.50;4995163;28;20045;-79
2022/07/14 06:08:47;;;;;;;10.77;1.90;;;;;;;30.88;35.15;102064.00;4994883;28;20484;-80
2022/07/14 06:11:13;;;;;;;6.78;1.90;;;;;;;30.96;35.19;102067.88;4994196;28;20022;-80
2022/07/14 06:13:40;;;;;;;7.00;2.08;;;;;;;31.33;33.99;102072.22;4993771;28;20441;-80
2022/07/14 06:16:06;;;;;;;8.65;1.60;;;;;;;31.37;33.61;102069.81;4994852;28;20126;-80
2022/07/14 06:18:31;;;;;;;15.65;1.95;;;;;;;32.06;32.87;102064.41;4997528;28;20054;-80
2022/07/14 06:20:57;;;;;;;15.02;2.20;;;;;;;32.07;32.96;102074.00;4996200;28;20030;-78
2022/07/14 06:23:22;;;;;;;6.00;1.52;;;;;;;31.70;33.29;102079.28;4994927;28;20053;-79
2022/07/14 06:25:48;;;;;;;6.22;1.40;;;;;;;30.35;35.05;102075.75;4994859;28;20113;-79
2022/07/14 06:28:14;;;;;;;7.47;1.67;;;;;;;29.55;36.67;102071.16;4993814;28;20034;-79
2022/07/14 06:30:40;;;;;;;12.68;1.70;;;;;;;30.92;34.35;102067.66;4995450;28;20029;-80
2022/07/14 06:33:05;;;;;;;6.78;1.40;;;;;;;31.06;34.75;102067.69;4993496;28;20034;-79
2022/07/14 06:35:31;;;;;;;6.90;1.75;;;;;;;31.56;33.43;102064.34;4994297;28;20026;-79
2022/07/14 06:37:56;;;;;;;8.07;1.90;;;;;;;30.79;34.13;102060.44;4997096;28;20050;-79
2022/07/14 06:40:23;;;;;;;6.18;1.27;;;;;;;30.79;34.76;102071.88;4997270;28;20032;-80
2022/07/14 06:42:48;;;;;;;8.82;1.70;;;;;;;31.34;33.71;102071.16;4996245;28;20109;-80
2022/07/14 06:45:15;;;;;;;5.38;1.45;;;;;;;30.42;34.38;102055.94;4997595;28;20485;-79
2022/07/14 06:47:40;;;;;;;7.78;1.50;;;;;;;30.93;33.89;102049.75;4996635;28;20304;-80
2022/07/14 06:50:07;;;;;;;10.88;1.73;;;;;;;31.17;33.41;102052.28;4997007;28;20026;-79
2022/07/14 06:52:32;;;;;;;4.35;1.45;;;;;;;29.53;36.06;102040.56;5000315;28;20018;-79
2022/07/14 06:54:59;;;;;;;10.77;1.55;;;;;;;29.02;36.75;102039.22;4996501;28;20037;-77
2022/07/14 06:57:25;;;;;;;10.63;1.33;;;;;;;28.69;37.26;102032.88;4992604;28;20018;-80
2022/07/14 06:59:50;;;;;;;7.80;1.27;;;;;;;26.80;40.65;102037.06;4993545;28;20477;-79
2022/07/14 07:02:15;;;;;;;9.15;1.42;;;;;;;25.82;43.51;102028.09;4994498;28;20123;-80
2022/07/14 07:04:41;;;;;;;5.32;1.60;;;;;;;24.75;45.65;102028.22;4994953;28;20084;-78
2022/07/14 07:07:06;;;;;;;7.50;1.60;;;;;;;23.76;48.62;102023.97;4995121;28;20034;-79
2022/07/14 07:09:32;;;;;;;7.28;1.38;;;;;;;23.76;48.29;102021.34;4994783;28;20073;-78
2022/07/14 07:11:57;;;;;;;6.43;1.90;;;;;;;24.02;47.93;102019.78;4994250;28;20034;-80
2022/07/14 07:14:22;;;;;;;7.68;1.50;;;;;;;24.34;48.46;102013.81;4995731;28;20081;-79
2022/07/14 07:16:49;;;;;;;7.45;1.70;;;;;;;23.78;49.19;102008.69;4995797;28;20023;-80
2022/07/14 07:19:15;;;;;;;8.07;1.50;;;;;;;22.93;50.84;102008.00;4998457;28;20038;-80
2022/07/14 07:21:41;;;;;;;5.32;1.40;;;;;;;23.77;47.86;102009.75;4998889;28;20030;-79
2022/07/14 07:24:09;;;;;;;8.55;1.50;;;;;;;24.17;47.52;102000.69;4999678;28;20030;-80
2022/07/14 07:26:36;;;;;;;4.97;1.40;;;;;;;24.03;46.77;102005.56;5000182;28;20449;-82
2022/07/14 07:29:02;;;;;;;6.22;1.40;;;;;;;24.23;46.09;102006.84;4999447;28;20026;-81
2022/07/14 07:31:27;;;;;;;7.40;1.42;;;;;;;24.23;46.44;102015.53;4999232;28;20030;-82
2022/07/14 07:33:53;;;;;;;4.93;1.50;;;;;;;23.84;47.22;102017.47;4997658;28;20026;-79
2022/07/14 07:36:18;;;;;;;6.40;1.48;;;;;;;23.64;47.11;102013.50;4998758;28;20019;-81
2022/07/14 07:38:44;;;;;;;10.23;1.50;;;;;;;23.85;47.67;102014.59;4996452;28;20022;-79
2022/07/14 07:41:09;;;;;;;8.48;1.55;;;;;;;24.82;45.81;102013.97;4996504;28;20037;-78
2022/07/14 07:43:35;;;;;;;7.72;1.42;;;;;;;24.95;44.65;102014.34;4994892;28;20041;-79
2022/07/14 07:46:03;;;;;;;6.45;1.38;;;;;;;24.13;46.79;102010.16;4994864;28;20033;-79
2022/07/14 07:48:29;;;;;;;7.70;2.08;;;;;;;23.79;49.26;102012.94;4996431;28;20374;-79
2022/07/14 07:50:55;;;;;;;10.95;1.95;;;;;;;23.90;49.29;101999.84;4997529;28;20393;-79
2022/07/14 07:53:20;;;;;;;5.53;1.75;;;;;;;24.03;49.71;102002.13;4994137;28;20018;-78
2022/07/14 07:55:45;;;;;;;7.45;1.70;;;;;;;24.29;48.45;101997.91;4996341;28;20092;-82
2022/07/14 07:58:11;;;;;;;12.27;1.85;;;;;;;24.92;47.60;102006.94;4997347;28;20113;-79
2022/07/14 08:00:37;;;;;;;11.73;1.90;;;;;;;24.82;48.13;102008.69;4996146;28;20548;-80
2022/07/14 08:03:03;;;;;;;9.20;2.03;;;;;;;24.80;46.78;102008.13;4998041;28;20026;-78
2022/07/14 08:05:29;;;;;;;9.50;1.60;;;;;;;23.76;49.38;101997.59;4996825;28;20030;-79
2022/07/14 08:07:55;;;;;;;6.50;1.60;;;;;;;23.86;50.04;101995.06;4997173;28;20453;-80
2022/07/14 08:10:20;;;;;;;7.05;1.70;;;;;;;24.53;48.16;102001.84;4997690;28;20022;-80
2022/07/14 08:12:46;;;;;;;10.07;1.55;;;;;;;23.83;49.91;102005.34;4997212;28;20057;-78
2022/07/14 08:15:13;;;;;;;9.20;2.10;;;;;;;24.36;48.06;102005.63;4995897;28;20026;-79
2022/07/14 08:17:39;;;;;;;8.07;1.90;;;;;;;24.82;47.78;102003.41;4995463;28;20025;-71
2022/07/14 08:20:06;;;;;;;11.68;2.03;;;;;;;25.21;46.58;101998.69;4995267;28;20030;-70
2022/07/14 08:22:31;;;;;;;8.25;1.70;;;;;;;25.49;44.92;101992.22;4995113;28;20022;-70
2022/07/14 08:24:57;;;;;;;5.55;1.50;;;;;;;25.68;44.44;101997.84;4996347;28;20026;-70
2022/07/14 08:27:23;;;;;;;6.43;1.42;;;;;;;26.11;42.18;101999.31;4994439;28;20041;-70
2022/07/14 08:29:49;;;;;;;7.20;1.40;;;;;;;24.17;46.13;101994.59;4996345;28;20030;-69
2022/07/14 08:32:14;;;;;;;6.63;1.65;;;;;;;25.19;45.39;101993.63;4994927;28;20498;-70
2022/07/14 08:34:40;;;;;;;12.13;1.45;;;;;;;25.97;42.66;101990.28;4996178;28;20037;-70
2022/07/14 08:37:06;;;;;;;6.18;1.40;;;;;;;25.13;44.61;101984.06;4996036;28;20069;-70
2022/07/14 08:39:32;;;;;;;7.30;1.58;;;;;;;24.89;45.47;101982.84;4996119;28;20109;-70
2022/07/14 08:42:02;;;;;;;5.78;1.30;;;;;;;23.82;46.94;101986.06;4995998;28;20031;-70
2022/07/14 08:44:28;;;;;;;5.20;1.20;;;;;;;23.48;47.75;101985.34;4994539;28;20594;-69
2022/07/14 08:46:55;;;;;;;5.50;1.40;;;;;;;23.62;48.53;101988.41;4995929;28;20062;-71
2022/07/14 08:49:21;;;;;;;6.90;1.38;;;;;;;23.06;48.05;101995.56;4994707;28;20027;-70
2022/07/14 08:51:49;;;;;;;5.45;1.10;;;;;;;22.81;48.23;101988.81;4995922;28;20034;-68
2022/07/14 08:54:15;;;;;;;6.95;1.30;;;;;;;24.32;44.14;101994.78;4995200;28;20050;-70
2022/07/14 08:56:41;;;;;;;10.43;1.50;;;;;;;25.52;43.35;101991.72;4993337;28;20100;-70
2022/07/14 08:59:07;;;;;;;9.02;1.40;;;;;;;25.68;41.54;101995.19;4995632;28;20061;-69
2022/07/14 09:01:32;;;;;;;9.88;1.13;;;;;;;25.99;41.88;102003.28;4994758;28;20375;-69
2022/07/14 09:03:59;;;;;;;4.65;1.10;;;;;;;26.32;39.86;101999.34;4995725;28;20024;-69
2022/07/14 09:06:50;;;;;;;6.25;1.20;;;;;;;26.54;38.79;101999.94;4995547;28;20077;-70
2022/07/14 09:09:22;;;;;;;5.70;1.17;;;;;;;26.70;38.60;102002.56;4994174;28;20030;-70
2022/07/14 09:11:52;;;;;;;4.78;1.10;;;;;;;26.30;39.67;102006.78;4994247;28;20022;-69
2022/07/14 09:14:18;;;;;;;4.03;1.27;;;;;;;26.63;38.97;102000.19;4995508;28;20061;-69
2022/07/14 09:16:43;;;;;;;4.22;1.55;;;;;;;26.96;38.77;101996.19;4995206;28;20092;-70
2022/07/14 09:19:12;;;;;;;7.43;1.58;;;;;;;26.88;39.51;102004.69;4994888;28;20389;-69
2022/07/14 09:21:44;;;;;;;7.57;1.15;;;;;;;26.84;38.71;101995.66;4995311;28;20053;-69
2022/07/14 09:24:14;;;;;;;6.20;1.05;;;;;;;26.77;39.04;102001.25;4995127;28;20030;-69
2022/07/14 09:26:49;;;;;;;13.90;1.15;;;;;;;27.17;38.26;101999.63;4994132;28;20080;-70
2022/07/14 09:29:16;;;;;;;4.63;0.98;;;;;;;27.45;36.82;102003.53;4995095;28;20057;-70
2022/07/14 09:31:42;;;;;;;4.90;1.17;;;;;;;27.59;37.17;101987.81;4994915;28;20026;-71
2022/07/14 09:34:09;;;;;;;11.98;1.38;;;;;;;26.89;39.89;101993.00;4993675;28;20024;-71
2022/07/14 09:36:36;;;;;;;2.05;0.82;;;;;;;26.74;37.62;101990.38;4995022;28;20035;-68
2022/07/14 09:39:05;;;;;;;5.95;1.17;;;;;;;27.05;35.29;101985.84;4992948;28;20026;-70
2022/07/14 09:41:36;;;;;;;3.22;1.17;;;;;;;26.77;36.42;101992.50;4994982;28;20026;-70
2022/07/14 09:44:21;;;;;;;10.35;1.88;;;;;;;26.44;37.02;101986.66;4993493;28;20130;-70
2022/07/14 09:46:54;;;;;;;4.05;1.25;;;;;;;27.25;36.53;101987.69;4994529;28;20034;-70
2022/07/14 09:49:30;;;;;;;5.22;0.98;;;;;;;26.82;35.42;101983.75;4993163;28;20040;-71
2022/07/14 09:52:06;;;;;;;6.10;1.08;;;;;;;27.58;36.71;101983.56;4994516;28;20481;-71
2022/07/14 09:54:37;;;;;;;4.43;1.05;;;;;;;27.52;35.00;101987.31;4993183;28;20030;-70
2022/07/14 09:57:15;;;;;;;3.40;0.90;;;;;;;27.47;33.76;101989.97;4993084;28;20022;-70
2022/07/14 09:59:53;;;;;;;5.68;1.33;;;;;;;27.50;35.86;101985.97;4994587;28;20030;-70
2022/07/14 10:02:21;;;;;;;3.72;1.00;;;;;;;27.69;33.66;101989.63;4993531;28;20093;-70
2022/07/14 10:04:47;;;;;;;4.18;1.20;;;;;;;27.45;35.06;101992.13;4993158;28;20402;-70
2022/07/14 10:07:14;;;;;;;3.75;1.05;;;;;;;27.90;35.38;101990.31;4994528;28;20098;-70
2022/07/14 10:09:46;;;;;;;3.83;0.95;;;;;;;28.06;35.73;101991.03;4994280;28;20390;-71
2022/07/14 10:12:12;;;;;;;3.15;1.00;;;;;;;28.06;34.80;101996.34;4994473;28;20389;-70
2022/07/14 10:14:38;;;;;;;5.07;1.00;;;;;;;28.05;34.10;101990.25;4992880;28;20022;-68
2022/07/14 10:17:04;;;;;;;5.38;1.60;;;;;;;27.79;35.23;101994.09;4993218;28;20094;-69
2022/07/14 10:19:29;;;;;;;6.32;0.98;;;;;;;28.64;34.05;101996.47;4993291;28;20474;-70
2022/07/14 10:21:55;;;;;;;2.38;0.82;;;;;;;29.28;33.09;102002.50;4994690;28;20493;-71
2022/07/14 10:24:23;;;;;;;4.22;1.20;;;;;;;28.67;33.07;102001.22;4994684;28;20096;-69
2022/07/14 10:26:48;;;;;;;3.40;1.10;;;;;;;29.07;33.43;101991.28;4994583;28;20502;-69
2022/07/14 10:29:14;;;;;;;3.47;1.05;;;;;;;28.76;33.41;102002.19;4994663;28;20112;-70
2022/07/14 10:31:51;;;;;;;16.50;1.38;;;;;;;28.75;33.10;101995.31;4994313;28;20026;-69
2022/07/14 10:34:38;;;;;;;38.40;1.95;;;;;;;28.09;33.62;101993.94;4994466;28;20022;-70
2022/07/14 10:37:16;;;;;;;13.25;1.15;;;;;;;27.70;33.67;101985.09;4994522;28;20039;-69
2022/07/14 10:39:56;;;;;;;25.83;1.80;;;;;;;27.69;32.95;101984.31;4994246;28;20378;-70
2022/07/14 10:42:43;;;;;;;14.38;1.65;;;;;;;27.57;33.32;101997.13;4993233;28;20440;-70
2022/07/14 10:45:09;;;;;;;2.42;0.90;;;;;;;27.73;34.79;101984.53;4991805;28;20069;-69
2022/07/14 10:47:52;;;;;;;3.00;0.70;;;;;;;27.66;32.82;101996.28;4994167;28;20037;-68
2022/07/14 10:50:22;;;;;;;2.13;0.60;;;;;;;27.24;33.86;102002.00;4994168;28;20034;-68
2022/07/14 10:53:05;;;;;;;10.38;0.80;;;;;;;26.76;33.11;102002.31;4993488;28;20034;-70
2022/07/14 10:55:30;;;;;;;4.25;0.90;;;;;;;26.52;33.17;102002.03;4992972;28;20022;-68
2022/07/14 10:57:58;;;;;;;3.23;0.80;;;;;;;26.59;32.71;101993.06;4993802;28;20032;-67
2022/07/14 11:00:47;;;;;;;4.97;1.05;;;;;;;26.49;35.50;101994.59;4992768;28;20454;-69
2022/07/14 11:03:26;;;;;;;3.50;0.60;;;;;;;26.37;33.87;101995.91;4993998;28;20062;-69
2022/07/14 11:06:05;;;;;;;6.00;0.80;;;;;;;25.93;34.56;101991.09;4994034;28;20109;-68
2022/07/14 11:08:31;;;;;;;2.30;0.70;;;;;;;25.72;34.27;101998.13;4992896;28;20045;-71
2022/07/14 12:08:01;;;;;;;8.55;1.30;;;;;;;25.49;39.76;101980.81;5088350;28;20389;-41
2022/07/14 12:10:40;;;;;;;4.57;1.20;;;;;;;26.00;38.81;101984.47;5088255;28;20106;-42
2022/07/14 12:13:06;;;;;;;9.68;1.27;;;;;;;26.75;37.56;101986.66;5088376;28;20028;-40
2022/07/14 12:15:32;;;;;;;4.55;1.27;;;;;;;26.66;38.26;101989.06;5088496;28;20089;-42
2022/07/14 12:18:00;;;;;;;6.50;1.75;;;;;;;26.61;37.45;101988.25;5071472;28;20032;-40
2022/07/14 12:20:34;;;;;;;4.88;1.45;;;;;;;26.58;36.28;101984.28;5088268;28;20028;-41
2022/07/14 12:23:00;;;;;;;8.48;1.63;;;;;;;26.80;37.28;101988.53;5088459;28;20040;-42
2022/07/14 12:25:31;;;;;;;10.80;1.27;;;;;;;26.95;36.82;101985.84;5088597;28;20055;-40